LFAT/LTQ METAR and TAF weather

Enter ICAO airport designator
Station Type Date Time Source
LFAT METAR 2021/08/01 18:00 UTC NOAA

LFAT 011800Z AUTO 26006KT 230V330 9999 BKN011 OVC110 17/15 Q1013 TEMPO BKN008


Station Type Date Time Source
LFAT Decoded METAR 2021/08/01 18:00 UTC NOAA

Le Touquet, France (LFAT) 50-31N 001-37E 14M
Aug 01, 2021 - 02:00 PM EDT / 2021.08.01 1800 UTC
Wind: from the W (260 degrees) at 7 MPH (6 KT) (direction variable):0
Visibility: greater than 7 mile(s):0
Sky conditions: overcast
Temperature: 62 F (17 C)
Dew Point: 59 F (15 C)
Relative Humidity: 88%
Pressure (altimeter): 29.91 in. Hg (1013 hPa)
ob: LFAT 011800Z AUTO 26006KT 230V330 9999 BKN011 OVC110 17/15 Q1013 TEMPO BKN008
cycle: 18

Station Type Date Time Source
LFAT TAF 2018/07/14 09:21 UTC NOAA

TAF TAF LFAT 140800Z 1409/1421 09004KT 8000 NSC
BECMG 1409/1411 30010KT

Example: see airport list